sensor_id;sensor_type;location;lat;lon;timestamp;pressure;altitude;pressure_sealevel;temperature;humidity
14393;BME280;7281;42.678;23.372;2022-12-10T00:01:12;94468.22;;;11.08;62.15
14393;BME280;7281;42.678;23.372;2022-12-10T00:03:39;94471.34;;;11.64;60.11
14393;BME280;7281;42.678;23.372;2022-12-10T00:06:10;94479.31;;;11.98;59.23
14393;BME280;7281;42.678;23.372;2022-12-10T00:08:37;94486.59;;;11.08;61.95
14393;BME280;7281;42.678;23.372;2022-12-10T00:11:06;94477.88;;;11.77;60.46
14393;BME280;7281;42.678;23.372;2022-12-10T00:13:34;94457.94;;;11.76;59.52
14393;BME280;7281;42.678;23.372;2022-12-10T00:16:03;94483.50;;;11.50;60.34
14393;BME280;7281;42.678;23.372;2022-12-10T00:18:31;94476.16;;;11.52;60.51
14393;BME280;7281;42.678;23.372;2022-12-10T00:21:10;94459.28;;;11.68;60.08
14393;BME280;7281;42.678;23.372;2022-12-10T00:23:38;94442.13;;;11.81;59.81
14393;BME280;7281;42.678;23.372;2022-12-10T00:26:16;94457.47;;;11.64;60.32
14393;BME280;7281;42.678;23.372;2022-12-10T00:28:44;94441.19;;;11.67;60.27
14393;BME280;7281;42.678;23.372;2022-12-10T00:31:18;94462.66;;;11.74;60.24
14393;BME280;7281;42.678;23.372;2022-12-10T00:33:46;94470.53;;;11.74;59.87
14393;BME280;7281;42.678;23.372;2022-12-10T00:36:26;94457.03;;;11.47;60.57
14393;BME280;7281;42.678;23.372;2022-12-10T00:38:53;94464.00;;;11.71;60.25
14393;BME280;7281;42.678;23.372;2022-12-10T00:41:21;94467.88;;;11.84;59.91
14393;BME280;7281;42.678;23.372;2022-12-10T00:43:48;94468.38;;;11.86;59.63
14393;BME280;7281;42.678;23.372;2022-12-10T00:46:16;94461.41;;;12.05;58.97
14393;BME280;7281;42.678;23.372;2022-12-10T00:48:45;94446.97;;;11.64;60.57
14393;BME280;7281;42.678;23.372;2022-12-10T00:51:14;94457.47;;;11.69;60.66
14393;BME280;7281;42.678;23.372;2022-12-10T00:53:44;94475.75;;;11.79;60.45
14393;BME280;7281;42.678;23.372;2022-12-10T00:56:13;94464.25;;;11.75;60.05
14393;BME280;7281;42.678;23.372;2022-12-10T00:58:41;94454.06;;;12.02;59.95
14393;BME280;7281;42.678;23.372;2022-12-10T01:01:21;94493.91;;;11.70;60.37
14393;BME280;7281;42.678;23.372;2022-12-10T01:03:53;94486.75;;;11.32;61.85
14393;BME280;7281;42.678;23.372;2022-12-10T01:06:24;94467.13;;;11.73;60.68
14393;BME280;7281;42.678;23.372;2022-12-10T01:08:53;94482.88;;;11.19;62.06
14393;BME280;7281;42.678;23.372;2022-12-10T01:11:24;94471.34;;;11.15;62.31
14393;BME280;7281;42.678;23.372;2022-12-10T01:13:51;94401.63;;;11.14;61.43
14393;BME280;7281;42.678;23.372;2022-12-10T01:16:20;94456.06;;;11.33;62.15
14393;BME280;7281;42.678;23.372;2022-12-10T01:18:53;94467.13;;;11.19;62.47
14393;BME280;7281;42.678;23.372;2022-12-10T01:21:21;94447.50;;;11.61;61.20
14393;BME280;7281;42.678;23.372;2022-12-10T01:23:50;94452.13;;;11.84;60.32
14393;BME280;7281;42.678;23.372;2022-12-10T01:26:36;94440.88;;;11.78;60.54
14393;BME280;7281;42.678;23.372;2022-12-10T01:29:04;94457.59;;;11.44;61.48
14393;BME280;7281;42.678;23.372;2022-12-10T01:31:34;94448.50;;;11.75;60.56
14393;BME280;7281;42.678;23.372;2022-12-10T01:34:02;94455.91;;;11.58;60.98
14393;BME280;7281;42.678;23.372;2022-12-10T01:36:37;94453.88;;;11.45;61.92
14393;BME280;7281;42.678;23.372;2022-12-10T01:39:07;94416.22;;;11.74;61.32
14393;BME280;7281;42.678;23.372;2022-12-10T01:41:40;94436.25;;;11.55;61.06
14393;BME280;7281;42.678;23.372;2022-12-10T01:46:50;94444.09;;;11.65;61.37
14393;BME280;7281;42.678;23.372;2022-12-10T01:49:38;94459.38;;;11.48;61.61
14393;BME280;7281;42.678;23.372;2022-12-10T01:52:09;94435.84;;;11.82;60.64
14393;BME280;7281;42.678;23.372;2022-12-10T01:54:39;94434.22;;;11.91;60.54
14393;BME280;7281;42.678;23.372;2022-12-10T01:57:36;94417.28;;;12.07;59.97
14393;BME280;7281;42.678;23.372;2022-12-10T02:00:05;94443.63;;;11.97;60.79
14393;BME280;7281;42.678;23.372;2022-12-10T02:02:53;94423.25;;;11.84;61.05
14393;BME280;7281;42.678;23.372;2022-12-10T02:05:36;94428.22;;;12.14;60.40
14393;BME280;7281;42.678;23.372;2022-12-10T02:08:27;94420.97;;;12.01;60.48
14393;BME280;7281;42.678;23.372;2022-12-10T02:13:41;94428.19;;;12.19;60.47
14393;BME280;7281;42.678;23.372;2022-12-10T02:16:26;94446.25;;;11.97;60.89
14393;BME280;7281;42.678;23.372;2022-12-10T02:19:16;94430.72;;;12.00;60.81
14393;BME280;7281;42.678;23.372;2022-12-10T02:21:47;94457.28;;;11.94;61.21
14393;BME280;7281;42.678;23.372;2022-12-10T02:24:28;94445.38;;;11.63;62.56
14393;BME280;7281;42.678;23.372;2022-12-10T02:29:26;94428.28;;;12.09;60.92
14393;BME280;7281;42.678;23.372;2022-12-10T02:31:59;94434.88;;;11.68;62.08
14393;BME280;7281;42.678;23.372;2022-12-10T02:34:37;94395.97;;;11.80;61.84
14393;BME280;7281;42.678;23.372;2022-12-10T02:37:11;94410.56;;;11.91;61.97
14393;BME280;7281;42.678;23.372;2022-12-10T02:39:43;94396.25;;;12.07;61.40
14393;BME280;7281;42.678;23.372;2022-12-10T02:42:15;94404.75;;;11.60;62.45
14393;BME280;7281;42.678;23.372;2022-12-10T02:44:44;94431.63;;;11.37;63.46
14393;BME280;7281;42.678;23.372;2022-12-10T02:47:13;94388.63;;;11.33;63.40
14393;BME280;7281;42.678;23.372;2022-12-10T02:49:47;94413.09;;;11.18;64.20
14393;BME280;7281;42.678;23.372;2022-12-10T02:52:17;94381.19;;;11.89;62.46
14393;BME280;7281;42.678;23.372;2022-12-10T02:54:49;94405.50;;;11.61;62.84
14393;BME280;7281;42.678;23.372;2022-12-10T03:00:21;94400.13;;;11.81;62.72
14393;BME280;7281;42.678;23.372;2022-12-10T03:06:11;94399.50;;;11.94;62.18
14393;BME280;7281;42.678;23.372;2022-12-10T03:11:21;94418.16;;;12.26;60.70
14393;BME280;7281;42.678;23.372;2022-12-10T03:14:28;94412.53;;;12.38;61.57
14393;BME280;7281;42.678;23.372;2022-12-10T03:16:58;94393.81;;;12.44;61.11
14393;BME280;7281;42.678;23.372;2022-12-10T03:19:37;94393.06;;;12.10;61.04
14393;BME280;7281;42.678;23.372;2022-12-10T03:22:07;94409.78;;;11.90;62.19
14393;BME280;7281;42.678;23.372;2022-12-10T03:24:36;94396.94;;;12.17;61.51
14393;BME280;7281;42.678;23.372;2022-12-10T03:27:05;94392.47;;;12.18;61.54
14393;BME280;7281;42.678;23.372;2022-12-10T03:29:36;94397.78;;;12.13;61.99
14393;BME280;7281;42.678;23.372;2022-12-10T03:32:05;94404.78;;;12.22;61.17
14393;BME280;7281;42.678;23.372;2022-12-10T03:34:33;94391.63;;;12.22;61.25
14393;BME280;7281;42.678;23.372;2022-12-10T03:37:01;94397.78;;;12.13;61.88
14393;BME280;7281;42.678;23.372;2022-12-10T03:39:29;94408.41;;;12.27;61.40
14393;BME280;7281;42.678;23.372;2022-12-10T03:41:55;94400.16;;;12.38;61.48
14393;BME280;7281;42.678;23.372;2022-12-10T03:44:33;94391.97;;;12.16;61.67
14393;BME280;7281;42.678;23.372;2022-12-10T03:47:02;94389.41;;;12.11;62.00
14393;BME280;7281;42.678;23.372;2022-12-10T03:49:29;94389.47;;;12.01;62.49
14393;BME280;7281;42.678;23.372;2022-12-10T03:51:56;94376.97;;;11.93;62.40
14393;BME280;7281;42.678;23.372;2022-12-10T03:54:23;94367.16;;;11.70;63.11
14393;BME280;7281;42.678;23.372;2022-12-10T03:56:50;94375.00;;;11.75;63.39
14393;BME280;7281;42.678;23.372;2022-12-10T03:59:17;94373.53;;;11.92;62.47
14393;BME280;7281;42.678;23.372;2022-12-10T04:01:44;94383.53;;;11.90;63.21
14393;BME280;7281;42.678;23.372;2022-12-10T04:04:11;94368.75;;;11.71;64.19
14393;BME280;7281;42.678;23.372;2022-12-10T04:06:40;94372.25;;;11.90;64.20
14393;BME280;7281;42.678;23.372;2022-12-10T04:09:12;94384.69;;;12.08;63.62
14393;BME280;7281;42.678;23.372;2022-12-10T04:11:41;94372.78;;;12.20;63.15
14393;BME280;7281;42.678;23.372;2022-12-10T04:14:09;94368.28;;;12.21;63.12
14393;BME280;7281;42.678;23.372;2022-12-10T04:16:54;94363.41;;;11.81;65.06
14393;BME280;7281;42.678;23.372;2022-12-10T04:19:23;94377.31;;;12.10;64.54
14393;BME280;7281;42.678;23.372;2022-12-10T04:21:51;94384.84;;;11.88;65.43
14393;BME280;7281;42.678;23.372;2022-12-10T04:24:37;94386.13;;;12.24;64.42
14393;BME280;7281;42.678;23.372;2022-12-10T04:27:28;94385.50;;;12.32;63.54
14393;BME280;7281;42.678;23.372;2022-12-10T04:29:56;94379.72;;;12.35;63.84
14393;BME280;7281;42.678;23.372;2022-12-10T04:32:26;94367.69;;;12.53;63.50
14393;BME280;7281;42.678;23.372;2022-12-10T04:34:54;94391.91;;;12.50;63.78
14393;BME280;7281;42.678;23.372;2022-12-10T04:37:21;94399.06;;;12.44;64.44
14393;BME280;7281;42.678;23.372;2022-12-10T04:39:49;94389.31;;;12.45;64.20
14393;BME280;7281;42.678;23.372;2022-12-10T04:42:17;94393.03;;;12.44;64.00
14393;BME280;7281;42.678;23.372;2022-12-10T04:44:45;94379.59;;;12.45;64.21
14393;BME280;7281;42.678;23.372;2022-12-10T04:47:13;94364.31;;;12.23;65.29
14393;BME280;7281;42.678;23.372;2022-12-10T04:49:40;94376.13;;;12.26;65.86
14393;BME280;7281;42.678;23.372;2022-12-10T04:52:08;94387.28;;;12.13;66.17
14393;BME280;7281;42.678;23.372;2022-12-10T04:54:36;94392.44;;;12.23;66.36
14393;BME280;7281;42.678;23.372;2022-12-10T04:57:05;94397.09;;;12.31;65.25
14393;BME280;7281;42.678;23.372;2022-12-10T04:59:34;94390.31;;;12.25;65.53
14393;BME280;7281;42.678;23.372;2022-12-10T05:02:02;94411.44;;;11.81;66.96
14393;BME280;7281;42.678;23.372;2022-12-10T05:04:29;94399.25;;;11.95;66.95
14393;BME280;7281;42.678;23.372;2022-12-10T05:06:56;94374.97;;;11.80;67.80
14393;BME280;7281;42.678;23.372;2022-12-10T05:09:25;94398.38;;;12.05;67.79
14393;BME280;7281;42.678;23.372;2022-12-10T05:11:52;94400.06;;;11.91;67.64
14393;BME280;7281;42.678;23.372;2022-12-10T05:14:19;94391.69;;;11.89;67.67
14393;BME280;7281;42.678;23.372;2022-12-10T05:16:48;94389.41;;;11.77;69.08
14393;BME280;7281;42.678;23.372;2022-12-10T05:19:15;94392.81;;;11.78;69.05
14393;BME280;7281;42.678;23.372;2022-12-10T05:21:43;94391.22;;;11.82;68.73
14393;BME280;7281;42.678;23.372;2022-12-10T05:24:28;94380.97;;;12.14;67.29
14393;BME280;7281;42.678;23.372;2022-12-10T05:26:57;94371.63;;;12.27;67.51
14393;BME280;7281;42.678;23.372;2022-12-10T05:29:24;94371.44;;;11.94;68.50
14393;BME280;7281;42.678;23.372;2022-12-10T05:31:51;94360.25;;;11.79;68.70
14393;BME280;7281;42.678;23.372;2022-12-10T05:34:18;94371.34;;;12.33;66.96
14393;BME280;7281;42.678;23.372;2022-12-10T05:36:45;94377.47;;;12.47;66.41
14393;BME280;7281;42.678;23.372;2022-12-10T05:39:12;94373.44;;;12.31;67.52
14393;BME280;7281;42.678;23.372;2022-12-10T05:41:39;94370.94;;;12.68;66.43
14393;BME280;7281;42.678;23.372;2022-12-10T05:44:08;94379.34;;;12.18;67.66
14393;BME280;7281;42.678;23.372;2022-12-10T05:46:36;94383.53;;;12.19;68.37
14393;BME280;7281;42.678;23.372;2022-12-10T05:49:05;94384.63;;;12.65;66.66
14393;BME280;7281;42.678;23.372;2022-12-10T05:51:33;94397.63;;;12.57;67.11
14393;BME280;7281;42.678;23.372;2022-12-10T05:54:01;94396.97;;;12.88;66.49
14393;BME280;7281;42.678;23.372;2022-12-10T05:56:30;94390.69;;;12.89;65.88
14393;BME280;7281;42.678;23.372;2022-12-10T05:59:00;94399.16;;;12.81;65.56
14393;BME280;7281;42.678;23.372;2022-12-10T06:01:30;94390.34;;;12.49;66.60
14393;BME280;7281;42.678;23.372;2022-12-10T06:03:59;94399.63;;;12.65;66.20
14393;BME280;7281;42.678;23.372;2022-12-10T06:06:29;94394.13;;;12.61;66.61
14393;BME280;7281;42.678;23.372;2022-12-10T06:08:56;94405.66;;;12.89;66.24
14393;BME280;7281;42.678;23.372;2022-12-10T06:11:25;94404.53;;;12.95;66.13
14393;BME280;7281;42.678;23.372;2022-12-10T06:13:54;94397.94;;;12.97;65.15
14393;BME280;7281;42.678;23.372;2022-12-10T06:16:23;94403.03;;;13.12;65.24
14393;BME280;7281;42.678;23.372;2022-12-10T06:18:51;94391.25;;;13.10;65.03
14393;BME280;7281;42.678;23.372;2022-12-10T06:21:18;94386.34;;;12.98;65.38
14393;BME280;7281;42.678;23.372;2022-12-10T06:23:48;94394.63;;;12.87;65.96
14393;BME280;7281;42.678;23.372;2022-12-10T06:26:17;94402.41;;;12.97;66.19
14393;BME280;7281;42.678;23.372;2022-12-10T06:28:46;94403.41;;;12.77;67.00
14393;BME280;7281;42.678;23.372;2022-12-10T06:31:14;94396.75;;;13.08;66.04
14393;BME280;7281;42.678;23.372;2022-12-10T06:33:41;94393.16;;;13.04;65.60
14393;BME280;7281;42.678;23.372;2022-12-10T06:36:10;94380.53;;;13.01;66.13
14393;BME280;7281;42.678;23.372;2022-12-10T06:38:38;94358.69;;;12.82;66.82
14393;BME280;7281;42.678;23.372;2022-12-10T06:41:08;94373.78;;;12.48;68.34
14393;BME280;7281;42.678;23.372;2022-12-10T06:43:35;94382.34;;;12.35;68.49
14393;BME280;7281;42.678;23.372;2022-12-10T06:46:11;94378.38;;;12.61;67.67
14393;BME280;7281;42.678;23.372;2022-12-10T06:48:40;94385.97;;;12.63;67.27
14393;BME280;7281;42.678;23.372;2022-12-10T06:51:08;94392.59;;;12.60;68.32
14393;BME280;7281;42.678;23.372;2022-12-10T06:53:36;94391.78;;;12.83;66.43
14393;BME280;7281;42.678;23.372;2022-12-10T06:56:05;94402.19;;;12.93;67.07
14393;BME280;7281;42.678;23.372;2022-12-10T06:58:33;94397.25;;;13.10;66.49
14393;BME280;7281;42.678;23.372;2022-12-10T07:01:08;94411.94;;;13.16;65.96
14393;BME280;7281;42.678;23.372;2022-12-10T07:03:35;94419.38;;;13.09;66.74
14393;BME280;7281;42.678;23.372;2022-12-10T07:06:03;94395.78;;;13.23;66.28
14393;BME280;7281;42.678;23.372;2022-12-10T07:08:31;94417.03;;;13.27;65.73
14393;BME280;7281;42.678;23.372;2022-12-10T07:10:58;94405.91;;;13.35;65.83
14393;BME280;7281;42.678;23.372;2022-12-10T07:13:25;94397.09;;;13.26;66.22
14393;BME280;7281;42.678;23.372;2022-12-10T07:15:57;94408.50;;;12.92;67.59
14393;BME280;7281;42.678;23.372;2022-12-10T07:18:24;94406.31;;;12.99;67.52
14393;BME280;7281;42.678;23.372;2022-12-10T07:20:52;94409.91;;;13.08;66.66
14393;BME280;7281;42.678;23.372;2022-12-10T07:23:19;94401.84;;;13.23;66.11
14393;BME280;7281;42.678;23.372;2022-12-10T07:25:45;94397.56;;;12.09;68.46
14393;BME280;7281;42.678;23.372;2022-12-10T07:28:12;94390.63;;;12.47;68.46
14393;BME280;7281;42.678;23.372;2022-12-10T07:30:39;94371.63;;;12.55;67.71
14393;BME280;7281;42.678;23.372;2022-12-10T07:33:06;94373.69;;;12.58;68.60
14393;BME280;7281;42.678;23.372;2022-12-10T07:35:33;94367.94;;;12.98;67.88
14393;BME280;7281;42.678;23.372;2022-12-10T07:38:00;94385.06;;;12.25;69.51
14393;BME280;7281;42.678;23.372;2022-12-10T07:40:28;94384.19;;;12.06;70.36
14393;BME280;7281;42.678;23.372;2022-12-10T07:43:06;94330.44;;;11.98;69.68
14393;BME280;7281;42.678;23.372;2022-12-10T07:45:33;94345.56;;;12.35;70.33
14393;BME280;7281;42.678;23.372;2022-12-10T07:48:01;94367.84;;;12.38;70.35
14393;BME280;7281;42.678;23.372;2022-12-10T07:50:28;94378.72;;;12.78;69.43
14393;BME280;7281;42.678;23.372;2022-12-10T07:52:55;94373.59;;;12.87;68.76
14393;BME280;7281;42.678;23.372;2022-12-10T07:55:23;94386.09;;;12.53;69.71
14393;BME280;7281;42.678;23.372;2022-12-10T07:57:50;94377.38;;;12.81;69.10
14393;BME280;7281;42.678;23.372;2022-12-10T08:00:17;94359.41;;;12.88;68.64
14393;BME280;7281;42.678;23.372;2022-12-10T08:02:45;94363.94;;;13.06;68.21
14393;BME280;7281;42.678;23.372;2022-12-10T08:05:12;94346.97;;;13.36;66.74
14393;BME280;7281;42.678;23.372;2022-12-10T08:07:39;94346.63;;;13.56;66.41
14393;BME280;7281;42.678;23.372;2022-12-10T08:10:06;94353.19;;;13.40;66.49
14393;BME280;7281;42.678;23.372;2022-12-10T08:12:33;94343.38;;;13.64;66.23
14393;BME280;7281;42.678;23.372;2022-12-10T08:15:01;94354.72;;;13.78;65.34
14393;BME280;7281;42.678;23.372;2022-12-10T08:17:29;94349.94;;;13.80;66.18
14393;BME280;7281;42.678;23.372;2022-12-10T08:19:55;94355.22;;;13.80;65.10
14393;BME280;7281;42.678;23.372;2022-12-10T08:22:22;94349.13;;;13.98;65.46
14393;BME280;7281;42.678;23.372;2022-12-10T08:24:49;94357.50;;;13.86;65.90
14393;BME280;7281;42.678;23.372;2022-12-10T08:27:16;94352.91;;;13.60;66.01
14393;BME280;7281;42.678;23.372;2022-12-10T08:29:43;94338.75;;;13.88;66.06
14393;BME280;7281;42.678;23.372;2022-12-10T08:32:10;94337.06;;;14.24;65.43
14393;BME280;7281;42.678;23.372;2022-12-10T08:34:37;94320.72;;;14.68;63.88
14393;BME280;7281;42.678;23.372;2022-12-10T08:37:04;94335.72;;;14.94;61.63
14393;BME280;7281;42.678;23.372;2022-12-10T08:39:37;94335.16;;;14.30;63.77
14393;BME280;7281;42.678;23.372;2022-12-10T08:42:04;94331.78;;;14.10;63.52
14393;BME280;7281;42.678;23.372;2022-12-10T08:44:31;94330.03;;;14.06;65.03
14393;BME280;7281;42.678;23.372;2022-12-10T08:46:58;94319.84;;;13.86;65.48
14393;BME280;7281;42.678;23.372;2022-12-10T08:49:25;94307.97;;;13.38;67.25
14393;BME280;7281;42.678;23.372;2022-12-10T08:51:52;94331.28;;;13.95;66.40
14393;BME280;7281;42.678;23.372;2022-12-10T08:54:19;94303.53;;;13.70;66.49
14393;BME280;7281;42.678;23.372;2022-12-10T08:56:46;94290.91;;;13.67;67.14
14393;BME280;7281;42.678;23.372;2022-12-10T08:59:13;94289.72;;;13.92;67.08
14393;BME280;7281;42.678;23.372;2022-12-10T09:01:40;94298.00;;;13.99;66.85
14393;BME280;7281;42.678;23.372;2022-12-10T09:04:07;94304.66;;;14.10;66.26
14393;BME280;7281;42.678;23.372;2022-12-10T09:06:35;94252.47;;;14.12;66.09
14393;BME280;7281;42.678;23.372;2022-12-10T09:09:02;94307.16;;;14.61;65.47
14393;BME280;7281;42.678;23.372;2022-12-10T09:11:31;94292.28;;;14.78;65.26
14393;BME280;7281;42.678;23.372;2022-12-10T09:14:03;94290.41;;;14.11;66.64
14393;BME280;7281;42.678;23.372;2022-12-10T09:16:35;94297.09;;;14.49;65.43
14393;BME280;7281;42.678;23.372;2022-12-10T09:19:03;94285.56;;;14.72;64.63
14393;BME280;7281;42.678;23.372;2022-12-10T09:21:31;94266.59;;;14.16;65.91
14393;BME280;7281;42.678;23.372;2022-12-10T09:23:58;94279.50;;;14.58;65.24
14393;BME280;7281;42.678;23.372;2022-12-10T09:26:26;94292.69;;;14.31;64.88
14393;BME280;7281;42.678;23.372;2022-12-10T09:28:53;94300.69;;;14.26;65.93
14393;BME280;7281;42.678;23.372;2022-12-10T09:31:21;94295.44;;;14.53;65.51
14393;BME280;7281;42.678;23.372;2022-12-10T09:33:50;94279.31;;;14.68;64.88
14393;BME280;7281;42.678;23.372;2022-12-10T09:36:17;94279.09;;;14.24;65.93
14393;BME280;7281;42.678;23.372;2022-12-10T09:38:46;94272.28;;;14.77;65.61
14393;BME280;7281;42.678;23.372;2022-12-10T09:47:00;94227.13;;;14.92;64.47
14393;BME280;7281;42.678;23.372;2022-12-10T09:52:21;94225.69;;;15.31;63.21
14393;BME280;7281;42.678;23.372;2022-12-10T09:54:57;94233.13;;;15.06;65.23
14393;BME280;7281;42.678;23.372;2022-12-10T09:57:28;94238.22;;;15.03;64.97
14393;BME280;7281;42.678;23.372;2022-12-10T10:00:02;94236.25;;;15.08;64.16
14393;BME280;7281;42.678;23.372;2022-12-10T10:02:37;94240.13;;;15.33;63.80
14393;BME280;7281;42.678;23.372;2022-12-10T10:07:35;94231.91;;;14.90;66.14
14393;BME280;7281;42.678;23.372;2022-12-10T10:10:06;94222.69;;;15.46;63.78
14393;BME280;7281;42.678;23.372;2022-12-10T10:12:34;94224.41;;;16.03;62.02
14393;BME280;7281;42.678;23.372;2022-12-10T10:15:15;94216.91;;;16.36;62.24
14393;BME280;7281;42.678;23.372;2022-12-10T10:17:43;94206.72;;;16.68;60.11
14393;BME280;7281;42.678;23.372;2022-12-10T10:20:16;94213.75;;;16.81;59.79
14393;BME280;7281;42.678;23.372;2022-12-10T10:22:43;94226.97;;;16.81;60.36
14393;BME280;7281;42.678;23.372;2022-12-10T10:25:15;94222.47;;;16.90;58.63
14393;BME280;7281;42.678;23.372;2022-12-10T10:27:44;94210.28;;;16.55;59.07
14393;BME280;7281;42.678;23.372;2022-12-10T10:30:18;94209.59;;;16.41;59.84
14393;BME280;7281;42.678;23.372;2022-12-10T10:32:54;94198.97;;;16.24;59.87
14393;BME280;7281;42.678;23.372;2022-12-10T10:35:31;94189.75;;;16.52;59.54
14393;BME280;7281;42.678;23.372;2022-12-10T10:38:04;94169.53;;;16.73;59.81
14393;BME280;7281;42.678;23.372;2022-12-10T10:40:44;94163.63;;;17.10;59.22
14393;BME280;7281;42.678;23.372;2022-12-10T10:43:18;94161.72;;;17.28;58.94
14393;BME280;7281;42.678;23.372;2022-12-10T10:45:51;94164.88;;;16.70;58.67
14393;BME280;7281;42.678;23.372;2022-12-10T10:48:23;94160.81;;;16.81;58.73
14393;BME280;7281;42.678;23.372;2022-12-10T10:53:40;94171.19;;;16.44;58.88
14393;BME280;7281;42.678;23.372;2022-12-10T10:56:21;94178.25;;;16.99;57.71
14393;BME280;7281;42.678;23.372;2022-12-10T11:04:13;94152.91;;;16.98;59.60
14393;BME280;7281;42.678;23.372;2022-12-10T11:06:40;94155.50;;;17.15;59.18
14393;BME280;7281;42.678;23.372;2022-12-10T11:09:20;94133.56;;;17.15;57.93
14393;BME280;7281;42.678;23.372;2022-12-10T11:12:06;94140.13;;;16.92;60.05
14393;BME280;7281;42.678;23.372;2022-12-10T11:14:44;94121.91;;;17.07;58.86
14393;BME280;7281;42.678;23.372;2022-12-10T11:20:17;94111.47;;;17.11;58.99
14393;BME280;7281;42.678;23.372;2022-12-10T11:22:55;94077.38;;;17.01;58.75
14393;BME280;7281;42.678;23.372;2022-12-10T11:28:06;94078.41;;;17.17;59.59
14393;BME280;7281;42.678;23.372;2022-12-10T11:30:44;94094.81;;;16.93;60.06
14393;BME280;7281;42.678;23.372;2022-12-10T11:33:34;94070.03;;;17.70;57.85
14393;BME280;7281;42.678;23.372;2022-12-10T11:36:24;94067.09;;;17.92;57.25
14393;BME280;7281;42.678;23.372;2022-12-10T11:39:21;94082.53;;;18.19;56.32
14393;BME280;7281;42.678;23.372;2022-12-10T11:45:07;94079.88;;;18.48;54.32
14393;BME280;7281;42.678;23.372;2022-12-10T11:50:41;94079.59;;;18.62;53.21
14393;BME280;7281;42.678;23.372;2022-12-10T11:55:58;94079.41;;;18.46;53.63
14393;BME280;7281;42.678;23.372;2022-12-10T12:01:18;94072.09;;;17.93;54.48
14393;BME280;7281;42.678;23.372;2022-12-10T12:04:12;94052.00;;;18.13;54.39
14393;BME280;7281;42.678;23.372;2022-12-10T12:09:30;94051.38;;;17.87;55.81
14393;BME280;7281;42.678;23.372;2022-12-10T12:12:25;94062.75;;;17.58;56.18
14393;BME280;7281;42.678;23.372;2022-12-10T12:15:21;94058.59;;;17.40;57.61
14393;BME280;7281;42.678;23.372;2022-12-10T12:17:52;94053.94;;;17.29;58.38
14393;BME280;7281;42.678;23.372;2022-12-10T12:20:32;94057.97;;;17.35;58.00
14393;BME280;7281;42.678;23.372;2022-12-10T12:23:10;94053.91;;;17.46;57.73
14393;BME280;7281;42.678;23.372;2022-12-10T12:25:42;94047.63;;;17.59;57.20
14393;BME280;7281;42.678;23.372;2022-12-10T12:28:32;94037.13;;;17.24;57.95
14393;BME280;7281;42.678;23.372;2022-12-10T12:31:15;94034.59;;;16.90;59.25
14393;BME280;7281;42.678;23.372;2022-12-10T12:33:49;94021.66;;;16.97;58.85
14393;BME280;7281;42.678;23.372;2022-12-10T12:36:24;94029.94;;;17.34;57.50
14393;BME280;7281;42.678;23.372;2022-12-10T12:41:54;94006.00;;;17.21;58.62
14393;BME280;7281;42.678;23.372;2022-12-10T12:44:40;94001.44;;;16.84;59.39
14393;BME280;7281;42.678;23.372;2022-12-10T12:47:54;93992.31;;;17.19;58.87
14393;BME280;7281;42.678;23.372;2022-12-10T12:53:10;93999.56;;;16.93;59.07
14393;BME280;7281;42.678;23.372;2022-12-10T12:56:10;93998.03;;;16.75;59.76
14393;BME280;7281;42.678;23.372;2022-12-10T13:01:41;93987.72;;;16.99;58.18
14393;BME280;7281;42.678;23.372;2022-12-10T13:04:11;93978.34;;;17.10;58.17
14393;BME280;7281;42.678;23.372;2022-12-10T13:06:39;93966.72;;;16.94;58.68
14393;BME280;7281;42.678;23.372;2022-12-10T13:11:43;93973.84;;;16.22;61.26
14393;BME280;7281;42.678;23.372;2022-12-10T13:22:08;93991.56;;;16.30;60.99
14393;BME280;7281;42.678;23.372;2022-12-10T13:24:46;93980.34;;;16.67;59.79
14393;BME280;7281;42.678;23.372;2022-12-10T13:38:03;93941.13;;;16.69;59.71
14393;BME280;7281;42.678;23.372;2022-12-10T13:43:26;93923.81;;;16.80;59.11
14393;BME280;7281;42.678;23.372;2022-12-10T13:49:03;93907.03;;;16.68;59.50
14393;BME280;7281;42.678;23.372;2022-12-10T13:51:49;93911.75;;;16.62;59.36
14393;BME280;7281;42.678;23.372;2022-12-10T14:00:23;93923.41;;;16.44;58.70
14393;BME280;7281;42.678;23.372;2022-12-10T14:09:36;93926.41;;;16.51;58.06
14393;BME280;7281;42.678;23.372;2022-12-10T14:11:40;93924.19;;;16.62;58.55
14393;BME280;7281;42.678;23.372;2022-12-10T14:14:14;93917.84;;;16.29;59.88
14393;BME280;7281;42.678;23.372;2022-12-10T14:16:42;93911.03;;;16.19;59.65
14393;BME280;7281;42.678;23.372;2022-12-10T14:19:13;93891.44;;;16.20;59.19
14393;BME280;7281;42.678;23.372;2022-12-10T14:21:42;93911.94;;;16.49;59.42
14393;BME280;7281;42.678;23.372;2022-12-10T14:24:26;93908.47;;;16.65;58.20
14393;BME280;7281;42.678;23.372;2022-12-10T14:27:13;93901.97;;;16.54;57.91
14393;BME280;7281;42.678;23.372;2022-12-10T14:29:47;93889.88;;;16.82;57.67
14393;BME280;7281;42.678;23.372;2022-12-10T14:32:17;93895.09;;;16.53;58.47
14393;BME280;7281;42.678;23.372;2022-12-10T14:34:52;93886.03;;;15.91;59.07
14393;BME280;7281;42.678;23.372;2022-12-10T14:37:23;93888.53;;;15.79;60.07
14393;BME280;7281;42.678;23.372;2022-12-10T14:39:52;93884.59;;;16.19;59.43
14393;BME280;7281;42.678;23.372;2022-12-10T14:42:19;93882.41;;;16.21;59.33
14393;BME280;7281;42.678;23.372;2022-12-10T14:44:51;93887.69;;;16.21;59.45
14393;BME280;7281;42.678;23.372;2022-12-10T14:47:21;93876.88;;;15.80;59.61
14393;BME280;7281;42.678;23.372;2022-12-10T14:49:50;93868.41;;;16.29;59.16
14393;BME280;7281;42.678;23.372;2022-12-10T14:52:21;93863.78;;;16.09;59.39
14393;BME280;7281;42.678;23.372;2022-12-10T14:54:49;93870.91;;;16.26;59.01
14393;BME280;7281;42.678;23.372;2022-12-10T14:57:28;93868.59;;;16.15;59.89
14393;BME280;7281;42.678;23.372;2022-12-10T15:00:06;93863.66;;;15.88;59.87
14393;BME280;7281;42.678;23.372;2022-12-10T15:02:37;93872.19;;;15.94;60.86
14393;BME280;7281;42.678;23.372;2022-12-10T15:05:16;93874.66;;;16.16;59.91
14393;BME280;7281;42.678;23.372;2022-12-10T15:07:54;93876.84;;;15.97;60.34